createdAt,value
2023-03-29T00:01:35.063Z,76.88
2023-03-29T00:04:04.558Z,75.73
2023-03-29T00:06:31.237Z,74.79
2023-03-29T00:08:57.743Z,74.36
2023-03-29T00:11:24.927Z,74.22
2023-03-29T00:13:52.032Z,75.01
2023-03-29T00:16:18.576Z,74.83
2023-03-29T00:18:45.478Z,73.28
2023-03-29T00:21:12.208Z,72.81
2023-03-29T00:23:38.647Z,73.05
2023-03-29T00:26:07.671Z,73.39
2023-03-29T00:28:34.614Z,73.51
2023-03-29T00:31:12.844Z,72.48
2023-03-29T00:33:40.436Z,72.26
2023-03-29T00:36:08.304Z,72.18
2023-03-29T00:38:35.063Z,72.47
2023-03-29T00:41:02.492Z,72.18
2023-03-29T00:43:29.274Z,73.50
2023-03-29T00:45:56.100Z,72.32
2023-03-29T00:48:26.447Z,71.58
2023-03-29T00:51:01.142Z,71.57
2023-03-29T00:53:32.465Z,70.42
2023-03-29T00:56:09.458Z,69.85
2023-03-29T00:59:06.658Z,69.17
2023-03-29T01:01:39.053Z,67.38
2023-03-29T01:04:11.804Z,69.21
2023-03-29T01:06:40.183Z,70.06
2023-03-29T01:09:13.502Z,71.14
2023-03-29T01:11:45.948Z,72.40
2023-03-29T01:14:18.812Z,72.48
2023-03-29T01:16:46.039Z,70.42
2023-03-29T01:19:18.997Z,70.73
2023-03-29T01:22:32.680Z,69.78
2023-03-29T01:25:45.589Z,69.58
2023-03-29T01:28:37.573Z,68.80
2023-03-29T01:31:12.897Z,68.40
2023-03-29T01:33:46.284Z,68.83
2023-03-29T01:36:18.619Z,66.92
2023-03-29T01:38:58.402Z,66.89
2023-03-29T01:41:34.601Z,67.07
2023-03-29T01:44:17.850Z,67.83
2023-03-29T01:46:51.912Z,67.25
2023-03-29T01:49:28.891Z,65.44
2023-03-29T01:52:01.310Z,67.35
2023-03-29T01:54:58.112Z,66.62
2023-03-29T01:57:26.522Z,66.80
2023-03-29T01:59:55.910Z,66.27
2023-03-29T02:02:26.466Z,65.90
2023-03-29T02:04:54.770Z,65.86
2023-03-29T02:07:25.048Z,65.95
2023-03-29T02:09:52.929Z,67.77
2023-03-29T02:12:19.627Z,67.32
2023-03-29T02:14:46.249Z,67.98
2023-03-29T02:17:23.064Z,65.79
2023-03-29T02:19:53.910Z,66.18
2023-03-29T02:22:29.782Z,65.59
2023-03-29T02:24:58.535Z,68.41
2023-03-29T02:27:29.277Z,67.94
2023-03-29T02:29:56.269Z,67.82
2023-03-29T02:32:33.910Z,70.29
2023-03-29T02:35:07.659Z,63.50
2023-03-29T02:37:37.443Z,65.82
2023-03-29T02:40:04.707Z,62.55
2023-03-29T02:42:31.562Z,64.56
2023-03-29T02:45:00.033Z,64.14
2023-03-29T02:47:38.378Z,65.51
2023-03-29T02:50:05.568Z,67.47
2023-03-29T02:52:37.679Z,68.86
2023-03-29T02:55:08.341Z,67.57
2023-03-29T02:57:34.811Z,67.72
2023-03-29T03:00:01.307Z,69.15
2023-03-29T03:02:27.981Z,67.91
2023-03-29T03:04:54.513Z,68.23
2023-03-29T03:07:21.089Z,67.51
2023-03-29T03:09:47.578Z,67.78
2023-03-29T03:12:14.055Z,68.53
2023-03-29T03:14:40.504Z,69.63
2023-03-29T03:17:07.017Z,69.88
2023-03-29T03:19:33.540Z,71.10
2023-03-29T03:22:00.113Z,71.01
2023-03-29T03:24:26.624Z,68.41
2023-03-29T03:26:53.043Z,70.82
2023-03-29T03:29:19.504Z,71.64
2023-03-29T03:31:46.038Z,72.48
2023-03-29T03:34:12.506Z,72.36
2023-03-29T03:36:38.960Z,72.00
2023-03-29T03:39:05.462Z,72.62
2023-03-29T03:41:31.919Z,69.19
2023-03-29T03:43:58.884Z,69.38
2023-03-29T03:46:26.696Z,68.07
2023-03-29T03:48:54.816Z,67.58
2023-03-29T03:51:21.624Z,70.31
2023-03-29T03:53:48.093Z,71.40
2023-03-29T03:56:15.147Z,72.57
2023-03-29T03:58:41.636Z,71.84
2023-03-29T04:01:08.093Z,68.78
2023-03-29T04:03:34.710Z,70.80
2023-03-29T04:06:02.617Z,71.84
2023-03-29T04:08:29.235Z,71.75
2023-03-29T04:10:58.232Z,72.62
2023-03-29T04:13:26.216Z,73.61
2023-03-29T04:15:53.072Z,72.91
2023-03-29T04:18:20.776Z,74.89
2023-03-29T04:20:47.718Z,72.92
2023-03-29T04:23:14.960Z,73.06
2023-03-29T04:25:41.490Z,74.96
2023-03-29T04:28:08.076Z,75.39
2023-03-29T04:30:34.549Z,75.83
2023-03-29T04:33:01.139Z,76.05
2023-03-29T04:35:27.793Z,74.79
2023-03-29T04:37:54.259Z,75.06
2023-03-29T04:40:20.862Z,75.79
2023-03-29T04:42:47.616Z,75.03
2023-03-29T04:45:14.772Z,75.66
2023-03-29T04:47:41.612Z,75.96
2023-03-29T04:50:08.742Z,75.46
2023-03-29T04:52:35.301Z,75.50
2023-03-29T04:55:02.549Z,73.10
2023-03-29T04:57:29.111Z,75.49
2023-03-29T04:59:55.778Z,75.76
2023-03-29T05:02:22.399Z,74.29
2023-03-29T05:04:48.912Z,74.51
2023-03-29T05:07:15.494Z,73.37
2023-03-29T05:09:41.966Z,72.99
2023-03-29T05:12:08.444Z,74.58
2023-03-29T05:14:34.937Z,72.55
2023-03-29T05:17:01.452Z,70.62
2023-03-29T05:19:28.047Z,70.87
2023-03-29T05:21:54.538Z,71.21
2023-03-29T05:24:21.104Z,71.63
2023-03-29T05:26:47.598Z,68.90
2023-03-29T05:29:14.156Z,65.02
2023-03-29T05:31:40.681Z,53.27
2023-03-29T05:34:07.149Z,52.53
2023-03-29T05:36:33.800Z,49.82
2023-03-29T05:39:00.280Z,45.83
2023-03-29T05:41:26.730Z,43.95
2023-03-29T05:43:53.339Z,43.12
2023-03-29T05:46:19.859Z,45.92
2023-03-29T05:48:46.410Z,41.59
2023-03-29T05:51:12.915Z,41.25
2023-03-29T05:53:39.366Z,41.45
2023-03-29T05:56:06.451Z,40.63
2023-03-29T05:58:32.909Z,40.25
2023-03-29T06:00:59.458Z,40.77
2023-03-29T06:03:26.098Z,43.99
2023-03-29T06:05:59.444Z,46.22
2023-03-29T06:08:26.433Z,44.12
2023-03-29T06:11:03.821Z,42.33
2023-03-29T06:13:32.409Z,41.01
2023-03-29T06:15:59.260Z,41.25
2023-03-29T06:18:25.847Z,42.18
2023-03-29T06:20:53.247Z,42.69
2023-03-29T06:23:21.565Z,43.09
2023-03-29T06:25:48.740Z,43.14
2023-03-29T06:28:15.455Z,41.68
2023-03-29T06:30:42.057Z,44.22
2023-03-29T06:33:09.508Z,42.28
2023-03-29T06:35:36.839Z,38.26
2023-03-29T06:38:03.943Z,37.88
2023-03-29T06:40:31.324Z,38.07
2023-03-29T06:42:58.156Z,42.47
2023-03-29T06:45:27.418Z,41.61
2023-03-29T06:47:55.426Z,40.14
2023-03-29T06:50:22.014Z,35.28
2023-03-29T06:52:48.616Z,34.30
2023-03-29T06:55:15.400Z,35.41
2023-03-29T06:57:42.389Z,41.13
2023-03-29T07:00:10.168Z,39.78
2023-03-29T07:02:36.902Z,40.90
2023-03-29T07:05:03.561Z,38.80
2023-03-29T07:07:30.022Z,37.04
2023-03-29T07:09:56.459Z,35.05
2023-03-29T07:12:23.332Z,34.05
2023-03-29T07:14:49.795Z,37.07
2023-03-29T07:17:16.345Z,32.92
2023-03-29T07:19:42.773Z,33.13
2023-03-29T07:22:09.266Z,36.22
2023-03-29T07:24:35.732Z,33.96
2023-03-29T07:27:04.467Z,31.60
2023-03-29T07:29:32.222Z,32.02
2023-03-29T07:31:58.628Z,32.29
2023-03-29T07:34:25.074Z,31.99
2023-03-29T07:36:51.588Z,34.64
2023-03-29T07:39:18.144Z,35.76
2023-03-29T07:41:44.616Z,33.82
2023-03-29T07:44:11.098Z,32.71
2023-03-29T07:46:37.574Z,30.53
2023-03-29T07:49:04.430Z,32.24
2023-03-29T07:51:30.885Z,31.77
2023-03-29T07:53:57.337Z,30.51
2023-03-29T07:56:23.841Z,31.09
2023-03-29T07:58:50.323Z,31.40
2023-03-29T08:01:19.345Z,30.11
2023-03-29T08:03:46.167Z,30.65
2023-03-29T08:06:12.643Z,30.12
2023-03-29T08:08:39.175Z,31.76
2023-03-29T08:11:05.850Z,30.01
2023-03-29T08:13:32.303Z,29.45
2023-03-29T08:15:58.747Z,30.20
2023-03-29T08:18:25.213Z,27.12
2023-03-29T08:20:51.661Z,28.32
2023-03-29T08:23:18.142Z,27.45
2023-03-29T08:25:46.320Z,27.95
2023-03-29T08:28:12.964Z,27.58
2023-03-29T08:30:39.482Z,30.14
2023-03-29T08:33:06.031Z,28.69
2023-03-29T08:35:32.584Z,27.63
2023-03-29T08:37:59.082Z,27.46
2023-03-29T08:40:28.594Z,26.78
2023-03-29T08:42:58.052Z,27.21
2023-03-29T08:45:56.973Z,26.46
2023-03-29T08:48:31.703Z,25.56
2023-03-29T08:51:03.954Z,27.68
2023-03-29T08:53:43.458Z,25.98
2023-03-29T08:56:18.148Z,27.30
2023-03-29T08:58:45.825Z,28.06
2023-03-29T09:01:12.737Z,26.94
2023-03-29T09:03:47.084Z,25.91
2023-03-29T09:06:14.603Z,27.13
2023-03-29T09:08:44.958Z,26.90
2023-03-29T09:11:17.278Z,26.54
2023-03-29T09:13:58.992Z,25.15
2023-03-29T09:16:31.431Z,27.45
2023-03-29T09:19:16.424Z,27.47
2023-03-29T09:21:58.982Z,23.67
2023-03-29T09:24:51.402Z,24.66
2023-03-29T09:27:28.467Z,25.90
2023-03-29T09:30:25.704Z,25.90
2023-03-29T09:33:21.102Z,25.10
2023-03-29T09:36:06.009Z,25.00
2023-03-29T09:38:36.976Z,24.88
2023-03-29T09:41:19.496Z,24.82
2023-03-29T09:43:48.588Z,24.33
2023-03-29T09:46:42.026Z,24.83
2023-03-29T09:49:16.023Z,23.56
2023-03-29T09:51:47.445Z,25.87
2023-03-29T09:54:13.987Z,25.09
2023-03-29T09:56:40.960Z,22.87
2023-03-29T09:59:11.412Z,24.84
2023-03-29T10:01:41.090Z,23.19
2023-03-29T10:04:09.372Z,23.22
2023-03-29T10:06:36.336Z,22.63
2023-03-29T10:09:03.709Z,22.72
2023-03-29T10:11:33.120Z,20.70
2023-03-29T10:14:13.816Z,22.99
2023-03-29T10:16:42.714Z,21.82
2023-03-29T10:19:30.534Z,20.76
2023-03-29T10:22:00.608Z,22.13
2023-03-29T10:24:27.948Z,20.80
2023-03-29T10:26:59.914Z,21.42
2023-03-29T10:29:27.194Z,21.45
2023-03-29T10:31:54.312Z,23.33
2023-03-29T10:34:22.529Z,21.55
2023-03-29T10:37:00.203Z,22.54
2023-03-29T10:39:33.954Z,21.01
2023-03-29T10:42:04.009Z,21.04
2023-03-29T10:44:34.426Z,20.80
2023-03-29T10:47:18.438Z,21.56
2023-03-29T10:50:05.808Z,20.62
2023-03-29T10:52:33.209Z,21.40
2023-03-29T10:54:59.770Z,22.57
2023-03-29T10:57:50.755Z,22.51
2023-03-29T11:00:39.944Z,22.55
2023-03-29T11:03:25.001Z,22.88
2023-03-29T11:06:33.772Z,23.11
2023-03-29T11:09:06.676Z,23.75
2023-03-29T11:11:47.061Z,23.72
2023-03-29T11:14:28.623Z,22.90
2023-03-29T11:17:04.115Z,22.52
2023-03-29T11:19:45.832Z,23.99
2023-03-29T11:22:30.822Z,24.16
2023-03-29T11:25:11.554Z,24.33
2023-03-29T11:27:43.634Z,23.80
2023-03-29T11:30:22.848Z,25.15
2023-03-29T11:33:20.151Z,24.58
2023-03-29T11:36:02.957Z,25.06
2023-03-29T11:38:35.871Z,25.69
2023-03-29T11:41:32.024Z,26.19
2023-03-29T11:44:26.495Z,26.32
2023-03-29T11:47:00.213Z,25.80
2023-03-29T11:49:30.707Z,25.77
2023-03-29T11:52:01.491Z,26.47
2023-03-29T11:54:33.884Z,25.35
2023-03-29T11:57:11.436Z,26.97
2023-03-29T11:59:45.380Z,25.88
2023-03-29T12:02:16.714Z,26.06
2023-03-29T12:04:48.590Z,27.58
2023-03-29T12:07:30.568Z,27.12
2023-03-29T12:10:09.545Z,26.97
2023-03-29T12:12:44.891Z,27.27
2023-03-29T12:15:21.211Z,26.09
2023-03-29T12:18:07.081Z,25.65
2023-03-29T12:20:37.846Z,26.58
2023-03-29T12:23:07.159Z,26.70
2023-03-29T12:25:50.450Z,27.29
2023-03-29T12:28:31.773Z,26.06
2023-03-29T12:31:16.678Z,26.83
2023-03-29T12:34:15.956Z,25.71
2023-03-29T12:36:48.875Z,25.05
2023-03-29T12:39:17.080Z,25.99
2023-03-29T12:41:43.767Z,25.34
2023-03-29T12:44:15.989Z,25.38
2023-03-29T12:46:43.464Z,25.53
2023-03-29T12:49:25.182Z,25.05
2023-03-29T12:51:51.738Z,25.95
2023-03-29T12:54:22.841Z,24.66
2023-03-29T12:56:52.188Z,22.92
2023-03-29T12:59:52.844Z,22.76
2023-03-29T13:02:19.309Z,21.77
2023-03-29T13:04:50.741Z,22.85
2023-03-29T13:07:23.073Z,23.18
2023-03-29T13:09:53.549Z,22.32
2023-03-29T13:12:35.414Z,22.35
2023-03-29T13:15:23.444Z,22.33
2023-03-29T13:18:06.024Z,22.10
2023-03-29T13:20:56.391Z,23.98
2023-03-29T13:23:43.129Z,21.89
2023-03-29T13:26:47.384Z,23.04
2023-03-29T13:29:19.898Z,22.49
2023-03-29T13:31:46.413Z,22.43
2023-03-29T13:34:21.456Z,22.35
2023-03-29T13:36:50.884Z,22.44
2023-03-29T13:39:24.471Z,23.17
2023-03-29T13:41:53.486Z,23.58
2023-03-29T13:44:22.650Z,22.62
2023-03-29T13:47:05.559Z,23.71
2023-03-29T13:49:34.257Z,23.52
2023-03-29T13:52:19.728Z,24.04
2023-03-29T13:54:55.984Z,23.91
2023-03-29T13:57:36.057Z,24.76
2023-03-29T14:00:10.762Z,23.81
2023-03-29T14:02:37.293Z,23.73
2023-03-29T14:05:07.883Z,23.36
2023-03-29T14:07:39.258Z,23.86
2023-03-29T14:10:06.714Z,23.98
2023-03-29T14:12:38.345Z,24.78
2023-03-29T14:15:07.567Z,25.42
2023-03-29T14:17:36.202Z,24.80
2023-03-29T14:20:02.912Z,25.51
2023-03-29T14:22:32.816Z,25.39
2023-03-29T14:25:05.649Z,25.72
2023-03-29T14:27:35.777Z,25.49
2023-03-29T14:30:02.276Z,25.92
2023-03-29T14:32:31.092Z,26.07
2023-03-29T14:34:57.861Z,25.64
2023-03-29T14:37:29.771Z,25.58
2023-03-29T14:39:58.636Z,25.98
2023-03-29T14:42:27.939Z,25.76
2023-03-29T14:45:07.066Z,25.52
2023-03-29T14:47:34.195Z,26.33
2023-03-29T14:50:01.002Z,25.62
2023-03-29T14:52:30.114Z,26.08
2023-03-29T14:54:59.943Z,26.55
2023-03-29T14:57:32.314Z,25.86
2023-03-29T15:00:01.054Z,26.30
2023-03-29T15:02:32.827Z,27.14
2023-03-29T15:05:01.781Z,27.22
2023-03-29T15:07:28.779Z,26.90
2023-03-29T15:09:57.463Z,27.52
2023-03-29T15:12:24.640Z,27.36
2023-03-29T15:14:51.876Z,27.09
2023-03-29T15:17:24.117Z,27.39
2023-03-29T15:19:59.480Z,27.39
2023-03-29T15:22:35.298Z,28.20
2023-03-29T15:25:01.949Z,27.98
2023-03-29T15:27:39.507Z,27.91
2023-03-29T15:30:13.219Z,28.54
2023-03-29T15:32:39.841Z,29.20
2023-03-29T15:35:09.222Z,29.28
2023-03-29T15:37:36.287Z,29.21
2023-03-29T15:40:03.037Z,28.53
2023-03-29T15:42:29.499Z,29.41
2023-03-29T15:44:56.217Z,29.45
2023-03-29T15:47:23.052Z,30.43
2023-03-29T15:49:49.717Z,30.96
2023-03-29T15:52:16.146Z,31.09
2023-03-29T15:54:42.632Z,31.17
2023-03-29T15:57:14.073Z,31.08
2023-03-29T15:59:40.727Z,31.41
2023-03-29T16:02:12.026Z,31.67
2023-03-29T16:04:38.551Z,31.31
2023-03-29T16:07:10.348Z,31.20
2023-03-29T16:09:36.889Z,31.32
2023-03-29T16:12:03.530Z,32.20
2023-03-29T16:14:31.268Z,32.40
2023-03-29T16:17:00.347Z,31.97
2023-03-29T16:19:29.092Z,32.13
2023-03-29T16:21:56.544Z,32.89
2023-03-29T16:24:26.317Z,33.00
2023-03-29T16:26:55.725Z,33.41
2023-03-29T16:29:23.885Z,33.77
2023-03-29T16:31:51.762Z,34.31
2023-03-29T16:34:19.089Z,34.54
2023-03-29T16:36:46.219Z,34.38
2023-03-29T16:39:12.841Z,35.37
2023-03-29T16:41:40.917Z,34.73
2023-03-29T16:44:07.761Z,34.35
2023-03-29T16:46:34.381Z,35.77
2023-03-29T16:49:00.909Z,35.48
2023-03-29T16:51:27.338Z,35.73
2023-03-29T16:53:53.856Z,36.49
2023-03-29T16:56:20.304Z,35.93
2023-03-29T16:58:46.746Z,36.12
2023-03-29T17:01:16.696Z,36.49
2023-03-29T17:03:44.062Z,37.16
2023-03-29T17:06:11.152Z,36.91
2023-03-29T17:08:38.770Z,37.35
2023-03-29T17:11:06.285Z,38.29
2023-03-29T17:13:33.290Z,38.50
2023-03-29T17:15:59.780Z,38.70
2023-03-29T17:18:27.255Z,39.44
2023-03-29T17:20:57.505Z,39.27
2023-03-29T17:23:24.628Z,38.86
2023-03-29T17:25:51.359Z,38.99
2023-03-29T17:28:17.855Z,39.85
2023-03-29T17:30:45.592Z,39.93
2023-03-29T17:33:12.198Z,39.83
2023-03-29T17:35:41.799Z,40.88
2023-03-29T17:38:08.664Z,39.89
2023-03-29T17:40:35.282Z,40.75
2023-03-29T17:43:01.853Z,41.16
2023-03-29T17:45:28.358Z,41.50
2023-03-29T17:47:54.855Z,40.74
2023-03-29T17:50:21.396Z,40.93
2023-03-29T17:52:47.900Z,41.50
2023-03-29T17:55:14.438Z,40.94
2023-03-29T17:57:42.084Z,41.13
2023-03-29T18:00:11.876Z,40.89
2023-03-29T18:02:39.793Z,41.45
2023-03-29T18:05:07.524Z,41.75
2023-03-29T18:07:34.008Z,42.07
2023-03-29T18:10:00.440Z,41.80
2023-03-29T18:12:27.743Z,42.28
2023-03-29T18:14:54.972Z,40.73
2023-03-29T18:17:21.500Z,41.23
2023-03-29T18:19:48.072Z,40.94
2023-03-29T18:22:14.598Z,42.26
2023-03-29T18:24:41.076Z,42.65
2023-03-29T18:27:07.524Z,43.50
2023-03-29T18:29:34.008Z,43.64
2023-03-29T18:32:00.498Z,44.81
2023-03-29T18:34:27.055Z,43.16
2023-03-29T18:36:53.531Z,43.88
2023-03-29T18:39:19.999Z,45.75
2023-03-29T18:41:46.435Z,45.43
2023-03-29T18:44:12.887Z,45.70
2023-03-29T18:46:39.820Z,46.48
2023-03-29T18:49:06.769Z,45.52
2023-03-29T18:51:33.883Z,46.31
2023-03-29T18:54:00.992Z,46.00
2023-03-29T18:56:27.947Z,45.67
2023-03-29T18:58:54.745Z,46.70
2023-03-29T19:01:21.282Z,46.67
2023-03-29T19:03:47.983Z,46.86
2023-03-29T19:06:14.969Z,46.01
2023-03-29T19:08:42.038Z,46.56
2023-03-29T19:11:10.728Z,46.68
2023-03-29T19:13:37.329Z,46.67
2023-03-29T19:16:04.251Z,48.39
2023-03-29T19:18:31.103Z,47.85
2023-03-29T19:20:57.645Z,47.25
2023-03-29T19:23:25.634Z,47.12
2023-03-29T19:26:01.723Z,48.60
2023-03-29T19:28:28.892Z,48.59
2023-03-29T19:30:56.528Z,47.61
2023-03-29T19:33:23.078Z,49.34
2023-03-29T19:35:50.885Z,49.61
2023-03-29T19:38:20.994Z,48.45
2023-03-29T19:40:49.077Z,49.97
2023-03-29T19:43:15.703Z,50.79
2023-03-29T19:45:46.897Z,51.37
2023-03-29T19:48:21.753Z,51.20
2023-03-29T19:50:49.862Z,52.03
2023-03-29T19:53:16.349Z,51.56
2023-03-29T19:55:43.762Z,51.15
2023-03-29T19:58:10.205Z,51.50
2023-03-29T20:00:36.815Z,51.27
2023-03-29T20:03:03.317Z,50.83
2023-03-29T20:05:29.813Z,51.69
2023-03-29T20:07:56.281Z,51.92
2023-03-29T20:10:22.724Z,51.67
2023-03-29T20:12:49.215Z,50.15
2023-03-29T20:15:15.737Z,50.32
2023-03-29T20:17:42.273Z,52.12
2023-03-29T20:20:09.854Z,50.31
2023-03-29T20:22:37.755Z,53.02
2023-03-29T20:25:05.057Z,52.88
2023-03-29T20:27:31.497Z,52.78
2023-03-29T20:29:57.991Z,51.72
2023-03-29T20:32:24.441Z,53.13
2023-03-29T20:34:50.901Z,53.61
2023-03-29T20:37:17.488Z,53.46
2023-03-29T20:39:43.923Z,53.65
2023-03-29T20:42:10.373Z,53.44
2023-03-29T20:44:36.888Z,55.02
2023-03-29T20:47:03.341Z,54.35
2023-03-29T20:49:33.973Z,54.37
2023-03-29T20:52:00.423Z,53.79
2023-03-29T20:54:26.928Z,54.63
2023-03-29T20:56:53.411Z,55.11
2023-03-29T20:59:19.985Z,54.97
2023-03-29T21:01:46.506Z,54.31
2023-03-29T21:04:13.078Z,54.67
2023-03-29T21:06:39.584Z,54.87
2023-03-29T21:09:06.077Z,54.92
2023-03-29T21:11:32.584Z,55.66
2023-03-29T21:13:59.105Z,55.14
2023-03-29T21:16:25.737Z,54.69
2023-03-29T21:18:53.113Z,55.50
2023-03-29T21:21:19.602Z,55.02
2023-03-29T21:23:46.073Z,55.74
2023-03-29T21:26:12.595Z,55.82
2023-03-29T21:28:39.096Z,55.70
2023-03-29T21:31:06.555Z,56.32
2023-03-29T21:33:33.570Z,56.24
2023-03-29T21:36:00.320Z,56.89
2023-03-29T21:38:27.126Z,57.12
2023-03-29T21:40:53.668Z,56.38
2023-03-29T21:43:20.237Z,56.82
2023-03-29T21:45:50.343Z,56.13
2023-03-29T21:48:17.630Z,56.35
2023-03-29T21:50:44.119Z,56.29
2023-03-29T21:53:10.617Z,56.55
2023-03-29T21:55:37.112Z,56.33
2023-03-29T21:58:04.740Z,56.22
2023-03-29T22:00:31.506Z,55.80
2023-03-29T22:02:58.042Z,54.66
2023-03-29T22:05:24.690Z,54.67
2023-03-29T22:07:51.108Z,54.46
2023-03-29T22:10:17.690Z,54.83
2023-03-29T22:12:44.188Z,55.25
2023-03-29T22:15:11.074Z,55.53
2023-03-29T22:17:37.886Z,55.40
2023-03-29T22:20:04.915Z,56.21
2023-03-29T22:22:31.376Z,55.55
2023-03-29T22:24:57.778Z,56.29
2023-03-29T22:27:24.245Z,56.10
2023-03-29T22:29:50.723Z,55.76
2023-03-29T22:32:17.193Z,55.84
2023-03-29T22:34:43.648Z,55.29
2023-03-29T22:37:10.148Z,55.64
2023-03-29T22:39:36.937Z,55.16
2023-03-29T22:42:03.620Z,55.65
2023-03-29T22:44:30.262Z,54.66
2023-03-29T22:46:56.754Z,54.95
2023-03-29T22:49:23.264Z,55.93
2023-03-29T22:51:49.738Z,54.98
2023-03-29T22:54:16.197Z,54.90
2023-03-29T22:56:42.764Z,54.21
2023-03-29T22:59:09.291Z,54.32
2023-03-29T23:01:35.862Z,56.11
2023-03-29T23:04:02.459Z,56.95
2023-03-29T23:06:28.936Z,56.01
2023-03-29T23:08:55.417Z,55.35
2023-03-29T23:11:21.957Z,56.46
2023-03-29T23:13:48.394Z,55.40
2023-03-29T23:16:15.724Z,53.68
2023-03-29T23:18:42.259Z,54.32
2023-03-29T23:21:08.751Z,54.30
2023-03-29T23:23:35.485Z,56.69
2023-03-29T23:26:02.325Z,56.82
2023-03-29T23:28:29.532Z,56.55
2023-03-29T23:30:57.403Z,56.73
2023-03-29T23:33:24.939Z,56.50
2023-03-29T23:35:51.336Z,56.18
2023-03-29T23:38:17.822Z,56.31
2023-03-29T23:40:44.326Z,55.33
2023-03-29T23:43:10.848Z,55.43
2023-03-29T23:45:37.318Z,55.20
2023-03-29T23:48:03.926Z,55.66
2023-03-29T23:50:30.431Z,55.79
2023-03-29T23:52:56.886Z,56.24
2023-03-29T23:55:23.329Z,57.33
2023-03-29T23:57:49.802Z,57.96
